sensor_id;sensor_type;location;lat;lon;timestamp;P1;durP1;ratioP1;P2;durP2;ratioP2
17382;SDS011;8809;51.892;8.384;2023-02-28T00:00:31;3.17;;;2.20;;
17382;SDS011;8809;51.892;8.384;2023-02-28T00:02:59;3.08;;;2.40;;
17382;SDS011;8809;51.892;8.384;2023-02-28T00:05:27;3.05;;;2.58;;
17382;SDS011;8809;51.892;8.384;2023-02-28T00:07:55;2.50;;;2.30;;
17382;SDS011;8809;51.892;8.384;2023-02-28T00:10:23;3.13;;;2.45;;
17382;SDS011;8809;51.892;8.384;2023-02-28T00:12:53;3.70;;;2.33;;
17382;SDS011;8809;51.892;8.384;2023-02-28T00:15:22;3.90;;;2.38;;
17382;SDS011;8809;51.892;8.384;2023-02-28T00:17:50;2.30;;;2.10;;
17382;SDS011;8809;51.892;8.384;2023-02-28T00:20:17;2.55;;;2.25;;
17382;SDS011;8809;51.892;8.384;2023-02-28T00:22:46;3.05;;;2.20;;
17382;SDS011;8809;51.892;8.384;2023-02-28T00:25:17;3.10;;;2.17;;
17382;SDS011;8809;51.892;8.384;2023-02-28T00:27:46;2.92;;;2.50;;
17382;SDS011;8809;51.892;8.384;2023-02-28T00:30:17;2.65;;;2.40;;
17382;SDS011;8809;51.892;8.384;2023-02-28T00:32:45;3.47;;;2.33;;
17382;SDS011;8809;51.892;8.384;2023-02-28T00:35:12;4.22;;;2.60;;
17382;SDS011;8809;51.892;8.384;2023-02-28T00:37:40;3.05;;;2.33;;
17382;SDS011;8809;51.892;8.384;2023-02-28T00:40:10;3.08;;;2.53;;
17382;SDS011;8809;51.892;8.384;2023-02-28T00:42:40;3.17;;;2.65;;
17382;SDS011;8809;51.892;8.384;2023-02-28T00:45:07;3.00;;;2.30;;
17382;SDS011;8809;51.892;8.384;2023-02-28T00:47:36;2.75;;;2.55;;
17382;SDS011;8809;51.892;8.384;2023-02-28T00:50:04;3.33;;;2.65;;
17382;SDS011;8809;51.892;8.384;2023-02-28T00:52:32;3.63;;;2.53;;
17382;SDS011;8809;51.892;8.384;2023-02-28T00:54:59;3.90;;;2.80;;
17382;SDS011;8809;51.892;8.384;2023-02-28T00:57:26;4.57;;;3.08;;
17382;SDS011;8809;51.892;8.384;2023-02-28T00:59:53;3.05;;;2.30;;
17382;SDS011;8809;51.892;8.384;2023-02-28T01:02:20;3.35;;;2.65;;
17382;SDS011;8809;51.892;8.384;2023-02-28T01:04:49;4.10;;;2.25;;
17382;SDS011;8809;51.892;8.384;2023-02-28T01:07:16;3.22;;;2.42;;
17382;SDS011;8809;51.892;8.384;2023-02-28T01:09:43;4.05;;;2.80;;
17382;SDS011;8809;51.892;8.384;2023-02-28T01:12:11;3.35;;;3.05;;
17382;SDS011;8809;51.892;8.384;2023-02-28T01:14:38;3.80;;;2.17;;
17382;SDS011;8809;51.892;8.384;2023-02-28T01:17:05;3.13;;;2.42;;
17382;SDS011;8809;51.892;8.384;2023-02-28T01:19:32;3.92;;;2.42;;
17382;SDS011;8809;51.892;8.384;2023-02-28T01:22:02;3.58;;;3.03;;
17382;SDS011;8809;51.892;8.384;2023-02-28T01:24:30;3.03;;;2.40;;
17382;SDS011;8809;51.892;8.384;2023-02-28T01:26:57;3.55;;;2.65;;
17382;SDS011;8809;51.892;8.384;2023-02-28T01:29:24;2.80;;;2.22;;
17382;SDS011;8809;51.892;8.384;2023-02-28T01:31:51;4.57;;;2.72;;
17382;SDS011;8809;51.892;8.384;2023-02-28T01:34:18;3.95;;;2.60;;
17382;SDS011;8809;51.892;8.384;2023-02-28T01:36:45;2.78;;;2.58;;
17382;SDS011;8809;51.892;8.384;2023-02-28T01:39:14;3.38;;;2.63;;
17382;SDS011;8809;51.892;8.384;2023-02-28T01:41:41;3.53;;;2.95;;
17382;SDS011;8809;51.892;8.384;2023-02-28T01:47:09;5.32;;;2.85;;
17382;SDS011;8809;51.892;8.384;2023-02-28T01:49:36;3.35;;;2.47;;
17382;SDS011;8809;51.892;8.384;2023-02-28T01:52:04;4.13;;;2.92;;
17382;SDS011;8809;51.892;8.384;2023-02-28T01:54:36;3.60;;;2.75;;
17382;SDS011;8809;51.892;8.384;2023-02-28T01:57:04;3.10;;;2.72;;
17382;SDS011;8809;51.892;8.384;2023-02-28T01:59:37;2.88;;;2.58;;
17382;SDS011;8809;51.892;8.384;2023-02-28T02:02:14;3.67;;;2.90;;
17382;SDS011;8809;51.892;8.384;2023-02-28T02:04:46;3.13;;;2.55;;
17382;SDS011;8809;51.892;8.384;2023-02-28T02:07:19;3.28;;;2.92;;
17382;SDS011;8809;51.892;8.384;2023-02-28T02:09:48;3.05;;;2.40;;
17382;SDS011;8809;51.892;8.384;2023-02-28T02:12:18;4.80;;;2.72;;
17382;SDS011;8809;51.892;8.384;2023-02-28T02:14:57;2.90;;;2.47;;
17382;SDS011;8809;51.892;8.384;2023-02-28T02:17:32;3.10;;;2.58;;
17382;SDS011;8809;51.892;8.384;2023-02-28T02:26:33;3.10;;;2.50;;
17382;SDS011;8809;51.892;8.384;2023-02-28T02:32:34;3.47;;;2.67;;
17382;SDS011;8809;51.892;8.384;2023-02-28T02:35:32;3.65;;;2.88;;
17382;SDS011;8809;51.892;8.384;2023-02-28T02:38:13;2.80;;;2.50;;
17382;SDS011;8809;51.892;8.384;2023-02-28T02:40:56;3.33;;;2.60;;
17382;SDS011;8809;51.892;8.384;2023-02-28T02:43:29;3.65;;;2.42;;
17382;SDS011;8809;51.892;8.384;2023-02-28T02:46:02;4.10;;;2.47;;
17382;SDS011;8809;51.892;8.384;2023-02-28T02:48:33;3.40;;;2.63;;
17382;SDS011;8809;51.892;8.384;2023-02-28T02:51:06;4.88;;;2.88;;
17382;SDS011;8809;51.892;8.384;2023-02-28T02:53:40;3.83;;;2.78;;
17382;SDS011;8809;51.892;8.384;2023-02-28T02:56:14;2.80;;;2.30;;
17382;SDS011;8809;51.892;8.384;2023-02-28T02:58:44;3.08;;;2.80;;
17382;SDS011;8809;51.892;8.384;2023-02-28T03:01:14;4.53;;;2.67;;
17382;SDS011;8809;51.892;8.384;2023-02-28T03:03:52;2.88;;;2.42;;
17382;SDS011;8809;51.892;8.384;2023-02-28T03:06:23;3.72;;;2.60;;
17382;SDS011;8809;51.892;8.384;2023-02-28T03:08:50;3.00;;;2.40;;
17382;SDS011;8809;51.892;8.384;2023-02-28T03:11:17;3.47;;;2.85;;
17382;SDS011;8809;51.892;8.384;2023-02-28T03:13:52;3.38;;;2.70;;
17382;SDS011;8809;51.892;8.384;2023-02-28T03:16:36;3.00;;;2.60;;
17382;SDS011;8809;51.892;8.384;2023-02-28T03:22:29;2.75;;;2.10;;
17382;SDS011;8809;51.892;8.384;2023-02-28T03:25:16;3.10;;;2.50;;
17382;SDS011;8809;51.892;8.384;2023-02-28T03:27:49;3.28;;;2.28;;
17382;SDS011;8809;51.892;8.384;2023-02-28T03:30:24;3.15;;;2.30;;
17382;SDS011;8809;51.892;8.384;2023-02-28T03:32:56;3.90;;;2.80;;
17382;SDS011;8809;51.892;8.384;2023-02-28T03:35:27;3.22;;;2.53;;
17382;SDS011;8809;51.892;8.384;2023-02-28T03:38:09;3.05;;;2.75;;
17382;SDS011;8809;51.892;8.384;2023-02-28T03:40:42;2.60;;;2.40;;
17382;SDS011;8809;51.892;8.384;2023-02-28T03:43:12;3.30;;;2.17;;
17382;SDS011;8809;51.892;8.384;2023-02-28T03:45:43;2.67;;;2.33;;
17382;SDS011;8809;51.892;8.384;2023-02-28T03:48:15;3.30;;;2.65;;
17382;SDS011;8809;51.892;8.384;2023-02-28T03:50:47;2.38;;;2.17;;
17382;SDS011;8809;51.892;8.384;2023-02-28T03:53:21;4.05;;;2.85;;
17382;SDS011;8809;51.892;8.384;2023-02-28T03:55:53;3.20;;;2.58;;
17382;SDS011;8809;51.892;8.384;2023-02-28T03:58:24;3.40;;;2.30;;
17382;SDS011;8809;51.892;8.384;2023-02-28T04:00:57;3.40;;;2.50;;
17382;SDS011;8809;51.892;8.384;2023-02-28T04:03:33;3.53;;;2.35;;
17382;SDS011;8809;51.892;8.384;2023-02-28T04:06:01;3.10;;;2.80;;
17382;SDS011;8809;51.892;8.384;2023-02-28T04:08:32;3.58;;;2.63;;
17382;SDS011;8809;51.892;8.384;2023-02-28T04:11:01;2.25;;;2.05;;
17382;SDS011;8809;51.892;8.384;2023-02-28T04:13:33;2.78;;;2.13;;
17382;SDS011;8809;51.892;8.384;2023-02-28T04:16:01;3.83;;;2.33;;
17382;SDS011;8809;51.892;8.384;2023-02-28T04:18:37;2.58;;;2.20;;
17382;SDS011;8809;51.892;8.384;2023-02-28T04:21:04;2.50;;;2.30;;
17382;SDS011;8809;51.892;8.384;2023-02-28T04:23:33;2.42;;;2.05;;
17382;SDS011;8809;51.892;8.384;2023-02-28T04:26:00;3.25;;;2.58;;
17382;SDS011;8809;51.892;8.384;2023-02-28T04:28:27;3.00;;;2.15;;
17382;SDS011;8809;51.892;8.384;2023-02-28T04:30:55;2.45;;;2.22;;
17382;SDS011;8809;51.892;8.384;2023-02-28T04:33:22;2.15;;;1.95;;
17382;SDS011;8809;51.892;8.384;2023-02-28T04:35:57;3.80;;;2.55;;
17382;SDS011;8809;51.892;8.384;2023-02-28T04:38:25;2.35;;;2.10;;
17382;SDS011;8809;51.892;8.384;2023-02-28T04:40:53;2.55;;;2.35;;
17382;SDS011;8809;51.892;8.384;2023-02-28T04:43:22;2.40;;;2.20;;
17382;SDS011;8809;51.892;8.384;2023-02-28T04:45:49;3.50;;;2.80;;
17382;SDS011;8809;51.892;8.384;2023-02-28T04:48:17;4.20;;;2.38;;
17382;SDS011;8809;51.892;8.384;2023-02-28T04:50:44;2.88;;;2.50;;
17382;SDS011;8809;51.892;8.384;2023-02-28T04:53:11;2.90;;;2.60;;
17382;SDS011;8809;51.892;8.384;2023-02-28T04:55:38;2.72;;;2.10;;
17382;SDS011;8809;51.892;8.384;2023-02-28T04:58:07;3.58;;;2.35;;
17382;SDS011;8809;51.892;8.384;2023-02-28T05:00:34;2.85;;;2.53;;
17382;SDS011;8809;51.892;8.384;2023-02-28T05:03:01;2.92;;;2.38;;
17382;SDS011;8809;51.892;8.384;2023-02-28T05:05:28;3.10;;;2.20;;
17382;SDS011;8809;51.892;8.384;2023-02-28T05:07:55;2.40;;;2.20;;
17382;SDS011;8809;51.892;8.384;2023-02-28T05:10:23;2.67;;;2.15;;
17382;SDS011;8809;51.892;8.384;2023-02-28T05:12:50;2.42;;;2.22;;
17382;SDS011;8809;51.892;8.384;2023-02-28T05:15:18;2.75;;;2.28;;
17382;SDS011;8809;51.892;8.384;2023-02-28T05:17:45;2.42;;;2.22;;
17382;SDS011;8809;51.892;8.384;2023-02-28T05:20:14;2.67;;;2.30;;
17382;SDS011;8809;51.892;8.384;2023-02-28T05:22:43;3.22;;;2.50;;
17382;SDS011;8809;51.892;8.384;2023-02-28T05:25:10;2.33;;;2.10;;
17382;SDS011;8809;51.892;8.384;2023-02-28T05:27:40;2.85;;;2.30;;
17382;SDS011;8809;51.892;8.384;2023-02-28T05:30:08;2.92;;;2.22;;
17382;SDS011;8809;51.892;8.384;2023-02-28T05:32:39;3.17;;;2.53;;
17382;SDS011;8809;51.892;8.384;2023-02-28T05:35:08;2.30;;;2.10;;
17382;SDS011;8809;51.892;8.384;2023-02-28T05:37:36;3.35;;;2.20;;
17382;SDS011;8809;51.892;8.384;2023-02-28T05:40:06;4.30;;;2.63;;
17382;SDS011;8809;51.892;8.384;2023-02-28T05:42:35;3.63;;;2.63;;
17382;SDS011;8809;51.892;8.384;2023-02-28T05:45:03;2.60;;;2.15;;
17382;SDS011;8809;51.892;8.384;2023-02-28T05:47:32;2.60;;;2.40;;
17382;SDS011;8809;51.892;8.384;2023-02-28T05:50:00;3.38;;;2.60;;
17382;SDS011;8809;51.892;8.384;2023-02-28T05:52:36;3.10;;;2.80;;
17382;SDS011;8809;51.892;8.384;2023-02-28T05:55:04;3.25;;;2.72;;
17382;SDS011;8809;51.892;8.384;2023-02-28T05:57:33;2.60;;;2.40;;
17382;SDS011;8809;51.892;8.384;2023-02-28T06:00:00;3.00;;;2.58;;
17382;SDS011;8809;51.892;8.384;2023-02-28T06:02:32;3.53;;;2.80;;
17382;SDS011;8809;51.892;8.384;2023-02-28T06:05:01;3.47;;;2.63;;
17382;SDS011;8809;51.892;8.384;2023-02-28T06:07:28;2.95;;;2.45;;
17382;SDS011;8809;51.892;8.384;2023-02-28T06:09:55;3.17;;;2.88;;
17382;SDS011;8809;51.892;8.384;2023-02-28T06:12:22;3.33;;;2.55;;
17382;SDS011;8809;51.892;8.384;2023-02-28T06:14:49;3.00;;;2.70;;
17382;SDS011;8809;51.892;8.384;2023-02-28T06:17:18;5.32;;;2.97;;
17382;SDS011;8809;51.892;8.384;2023-02-28T06:19:45;2.97;;;2.65;;
17382;SDS011;8809;51.892;8.384;2023-02-28T06:22:14;2.78;;;2.45;;
17382;SDS011;8809;51.892;8.384;2023-02-28T06:24:41;3.60;;;2.97;;
17382;SDS011;8809;51.892;8.384;2023-02-28T06:27:08;3.58;;;3.03;;
17382;SDS011;8809;51.892;8.384;2023-02-28T06:29:35;5.00;;;3.38;;
17382;SDS011;8809;51.892;8.384;2023-02-28T06:32:04;3.15;;;2.85;;
17382;SDS011;8809;51.892;8.384;2023-02-28T06:34:32;4.53;;;3.03;;
17382;SDS011;8809;51.892;8.384;2023-02-28T06:37:00;4.35;;;3.10;;
17382;SDS011;8809;51.892;8.384;2023-02-28T06:39:29;3.30;;;2.88;;
17382;SDS011;8809;51.892;8.384;2023-02-28T06:41:56;4.18;;;3.42;;
17382;SDS011;8809;51.892;8.384;2023-02-28T06:44:23;4.88;;;3.50;;
17382;SDS011;8809;51.892;8.384;2023-02-28T06:46:50;4.57;;;3.47;;
17382;SDS011;8809;51.892;8.384;2023-02-28T06:49:18;5.03;;;3.08;;
17382;SDS011;8809;51.892;8.384;2023-02-28T06:51:45;3.90;;;3.17;;
17382;SDS011;8809;51.892;8.384;2023-02-28T06:54:12;4.30;;;3.25;;
17382;SDS011;8809;51.892;8.384;2023-02-28T06:56:40;3.95;;;3.42;;
17382;SDS011;8809;51.892;8.384;2023-02-28T06:59:08;3.92;;;3.38;;
17382;SDS011;8809;51.892;8.384;2023-02-28T07:01:35;3.88;;;3.20;;
17382;SDS011;8809;51.892;8.384;2023-02-28T07:04:02;3.80;;;2.80;;
17382;SDS011;8809;51.892;8.384;2023-02-28T07:06:31;3.58;;;3.15;;
17382;SDS011;8809;51.892;8.384;2023-02-28T07:08:59;3.03;;;2.72;;
17382;SDS011;8809;51.892;8.384;2023-02-28T07:11:27;3.33;;;2.90;;
17382;SDS011;8809;51.892;8.384;2023-02-28T07:13:56;3.33;;;2.75;;
17382;SDS011;8809;51.892;8.384;2023-02-28T07:16:24;3.30;;;3.00;;
17382;SDS011;8809;51.892;8.384;2023-02-28T07:18:52;2.90;;;2.60;;
17382;SDS011;8809;51.892;8.384;2023-02-28T07:21:19;3.13;;;2.78;;
17382;SDS011;8809;51.892;8.384;2023-02-28T07:23:47;2.90;;;2.70;;
17382;SDS011;8809;51.892;8.384;2023-02-28T07:26:15;3.53;;;2.65;;
17382;SDS011;8809;51.892;8.384;2023-02-28T07:28:44;3.03;;;2.70;;
17382;SDS011;8809;51.892;8.384;2023-02-28T07:31:14;4.07;;;2.53;;
17382;SDS011;8809;51.892;8.384;2023-02-28T07:33:43;2.65;;;2.20;;
17382;SDS011;8809;51.892;8.384;2023-02-28T07:36:11;3.88;;;2.60;;
17382;SDS011;8809;51.892;8.384;2023-02-28T07:38:41;3.35;;;2.75;;
17382;SDS011;8809;51.892;8.384;2023-02-28T07:41:09;2.85;;;2.55;;
17382;SDS011;8809;51.892;8.384;2023-02-28T07:43:36;3.03;;;2.60;;
17382;SDS011;8809;51.892;8.384;2023-02-28T07:46:05;3.35;;;2.72;;
17382;SDS011;8809;51.892;8.384;2023-02-28T07:48:36;3.42;;;2.72;;
17382;SDS011;8809;51.892;8.384;2023-02-28T07:51:03;4.88;;;2.97;;
17382;SDS011;8809;51.892;8.384;2023-02-28T07:53:31;3.53;;;3.15;;
17382;SDS011;8809;51.892;8.384;2023-02-28T07:55:58;3.42;;;2.60;;
17382;SDS011;8809;51.892;8.384;2023-02-28T07:58:27;4.38;;;3.22;;
17382;SDS011;8809;51.892;8.384;2023-02-28T08:00:56;3.45;;;3.05;;
17382;SDS011;8809;51.892;8.384;2023-02-28T08:03:31;5.85;;;3.40;;
17382;SDS011;8809;51.892;8.384;2023-02-28T08:05:59;3.95;;;3.08;;
17382;SDS011;8809;51.892;8.384;2023-02-28T08:08:27;3.97;;;3.08;;
17382;SDS011;8809;51.892;8.384;2023-02-28T08:10:58;3.40;;;3.10;;
17382;SDS011;8809;51.892;8.384;2023-02-28T08:13:26;3.10;;;2.65;;
17382;SDS011;8809;51.892;8.384;2023-02-28T08:15:54;3.33;;;3.03;;
17382;SDS011;8809;51.892;8.384;2023-02-28T08:18:22;2.53;;;2.33;;
17382;SDS011;8809;51.892;8.384;2023-02-28T08:20:50;3.72;;;2.80;;
17382;SDS011;8809;51.892;8.384;2023-02-28T08:23:19;3.78;;;2.55;;
17382;SDS011;8809;51.892;8.384;2023-02-28T08:25:52;2.70;;;2.40;;
17382;SDS011;8809;51.892;8.384;2023-02-28T08:28:20;3.15;;;2.50;;
17382;SDS011;8809;51.892;8.384;2023-02-28T08:30:47;3.42;;;2.75;;
17382;SDS011;8809;51.892;8.384;2023-02-28T08:33:14;2.85;;;2.33;;
17382;SDS011;8809;51.892;8.384;2023-02-28T08:35:41;3.35;;;2.40;;
17382;SDS011;8809;51.892;8.384;2023-02-28T08:38:09;2.70;;;2.35;;
17382;SDS011;8809;51.892;8.384;2023-02-28T08:40:37;2.85;;;2.33;;
17382;SDS011;8809;51.892;8.384;2023-02-28T08:43:05;2.50;;;2.00;;
17382;SDS011;8809;51.892;8.384;2023-02-28T08:45:32;2.25;;;1.98;;
17382;SDS011;8809;51.892;8.384;2023-02-28T08:48:00;2.80;;;2.10;;
17382;SDS011;8809;51.892;8.384;2023-02-28T08:50:30;2.25;;;2.05;;
17382;SDS011;8809;51.892;8.384;2023-02-28T08:52:57;2.25;;;2.05;;
17382;SDS011;8809;51.892;8.384;2023-02-28T08:55:25;3.03;;;1.90;;
17382;SDS011;8809;51.892;8.384;2023-02-28T08:57:53;2.13;;;1.92;;
17382;SDS011;8809;51.892;8.384;2023-02-28T09:00:21;2.50;;;2.03;;
17382;SDS011;8809;51.892;8.384;2023-02-28T09:02:49;2.17;;;1.95;;
17382;SDS011;8809;51.892;8.384;2023-02-28T09:05:16;2.15;;;1.88;;
17382;SDS011;8809;51.892;8.384;2023-02-28T09:07:43;2.50;;;1.73;;
17382;SDS011;8809;51.892;8.384;2023-02-28T09:10:11;2.17;;;1.98;;
17382;SDS011;8809;51.892;8.384;2023-02-28T09:12:38;2.90;;;1.75;;
17382;SDS011;8809;51.892;8.384;2023-02-28T09:15:07;2.20;;;1.75;;
17382;SDS011;8809;51.892;8.384;2023-02-28T09:17:35;2.55;;;1.60;;
17382;SDS011;8809;51.892;8.384;2023-02-28T09:20:06;1.73;;;1.60;;
17382;SDS011;8809;51.892;8.384;2023-02-28T09:22:34;1.60;;;1.50;;
17382;SDS011;8809;51.892;8.384;2023-02-28T09:25:01;2.30;;;1.63;;
17382;SDS011;8809;51.892;8.384;2023-02-28T09:27:28;2.00;;;1.80;;
17382;SDS011;8809;51.892;8.384;2023-02-28T09:29:55;1.40;;;1.30;;
17382;SDS011;8809;51.892;8.384;2023-02-28T09:32:24;2.58;;;1.75;;
17382;SDS011;8809;51.892;8.384;2023-02-28T09:34:51;4.00;;;1.60;;
17382;SDS011;8809;51.892;8.384;2023-02-28T09:37:18;1.50;;;1.40;;
17382;SDS011;8809;51.892;8.384;2023-02-28T09:39:45;1.67;;;1.42;;
17382;SDS011;8809;51.892;8.384;2023-02-28T09:42:17;1.65;;;1.55;;
17382;SDS011;8809;51.892;8.384;2023-02-28T09:44:50;2.20;;;1.70;;
17382;SDS011;8809;51.892;8.384;2023-02-28T09:47:18;1.58;;;1.45;;
17382;SDS011;8809;51.892;8.384;2023-02-28T09:49:55;1.55;;;1.45;;
17382;SDS011;8809;51.892;8.384;2023-02-28T09:52:26;1.77;;;1.60;;
17382;SDS011;8809;51.892;8.384;2023-02-28T09:55:18;1.90;;;1.45;;
17382;SDS011;8809;51.892;8.384;2023-02-28T09:57:46;2.00;;;1.48;;
17382;SDS011;8809;51.892;8.384;2023-02-28T10:00:17;1.60;;;1.50;;
17382;SDS011;8809;51.892;8.384;2023-02-28T10:02:53;1.80;;;1.70;;
17382;SDS011;8809;51.892;8.384;2023-02-28T10:05:35;1.73;;;1.60;;
17382;SDS011;8809;51.892;8.384;2023-02-28T10:08:11;1.70;;;1.60;;
17382;SDS011;8809;51.892;8.384;2023-02-28T10:10:41;1.80;;;1.63;;
17382;SDS011;8809;51.892;8.384;2023-02-28T10:13:13;2.20;;;1.70;;
17382;SDS011;8809;51.892;8.384;2023-02-28T10:15:45;1.90;;;1.80;;
17382;SDS011;8809;51.892;8.384;2023-02-28T10:18:14;1.67;;;1.58;;
17382;SDS011;8809;51.892;8.384;2023-02-28T10:20:49;2.22;;;2.03;;
17382;SDS011;8809;51.892;8.384;2023-02-28T10:23:20;2.85;;;1.90;;
17382;SDS011;8809;51.892;8.384;2023-02-28T10:25:50;2.20;;;2.00;;
17382;SDS011;8809;51.892;8.384;2023-02-28T10:28:23;2.85;;;2.00;;
17382;SDS011;8809;51.892;8.384;2023-02-28T10:30:53;2.08;;;1.85;;
17382;SDS011;8809;51.892;8.384;2023-02-28T10:33:22;2.95;;;1.88;;
17382;SDS011;8809;51.892;8.384;2023-02-28T10:35:52;2.63;;;2.00;;
17382;SDS011;8809;51.892;8.384;2023-02-28T10:38:20;4.47;;;2.22;;
17382;SDS011;8809;51.892;8.384;2023-02-28T10:40:48;2.33;;;2.10;;
17382;SDS011;8809;51.892;8.384;2023-02-28T10:43:20;2.05;;;1.90;;
17382;SDS011;8809;51.892;8.384;2023-02-28T10:45:54;3.58;;;2.03;;
17382;SDS011;8809;51.892;8.384;2023-02-28T10:48:32;2.30;;;2.10;;
17382;SDS011;8809;51.892;8.384;2023-02-28T10:51:03;2.30;;;2.10;;
17382;SDS011;8809;51.892;8.384;2023-02-28T10:53:36;2.17;;;2.00;;
17382;SDS011;8809;51.892;8.384;2023-02-28T10:56:12;2.17;;;2.00;;
17382;SDS011;8809;51.892;8.384;2023-02-28T10:58:51;2.00;;;1.83;;
17382;SDS011;8809;51.892;8.384;2023-02-28T11:01:21;4.03;;;2.05;;
17382;SDS011;8809;51.892;8.384;2023-02-28T11:03:50;3.30;;;1.92;;
17382;SDS011;8809;51.892;8.384;2023-02-28T11:06:21;2.33;;;1.80;;
17382;SDS011;8809;51.892;8.384;2023-02-28T11:08:53;2.75;;;1.90;;
17382;SDS011;8809;51.892;8.384;2023-02-28T11:11:22;2.85;;;1.90;;
17382;SDS011;8809;51.892;8.384;2023-02-28T11:13:53;2.35;;;1.73;;
17382;SDS011;8809;51.892;8.384;2023-02-28T11:16:22;3.17;;;2.13;;
17382;SDS011;8809;51.892;8.384;2023-02-28T11:19:00;3.13;;;2.33;;
17382;SDS011;8809;51.892;8.384;2023-02-28T11:21:31;3.00;;;2.03;;
17382;SDS011;8809;51.892;8.384;2023-02-28T11:24:05;3.03;;;1.73;;
17382;SDS011;8809;51.892;8.384;2023-02-28T11:26:42;2.85;;;2.42;;
17382;SDS011;8809;51.892;8.384;2023-02-28T11:29:15;3.03;;;2.25;;
17382;SDS011;8809;51.892;8.384;2023-02-28T11:32:04;2.67;;;2.17;;
17382;SDS011;8809;51.892;8.384;2023-02-28T11:34:39;2.42;;;2.20;;
17382;SDS011;8809;51.892;8.384;2023-02-28T11:37:13;2.60;;;2.38;;
17382;SDS011;8809;51.892;8.384;2023-02-28T11:39:43;2.40;;;2.20;;
17382;SDS011;8809;51.892;8.384;2023-02-28T11:42:15;2.55;;;2.10;;
17382;SDS011;8809;51.892;8.384;2023-02-28T11:45:09;1.90;;;1.50;;
17382;SDS011;8809;51.892;8.384;2023-02-28T11:47:48;2.65;;;1.95;;
17382;SDS011;8809;51.892;8.384;2023-02-28T11:50:40;2.38;;;2.00;;
17382;SDS011;8809;51.892;8.384;2023-02-28T11:53:17;1.63;;;1.52;;
17382;SDS011;8809;51.892;8.384;2023-02-28T11:55:52;1.95;;;1.85;;
17382;SDS011;8809;51.892;8.384;2023-02-28T12:01:22;2.45;;;1.75;;
17382;SDS011;8809;51.892;8.384;2023-02-28T12:04:15;3.60;;;2.08;;
17382;SDS011;8809;51.892;8.384;2023-02-28T12:06:53;2.50;;;1.75;;
17382;SDS011;8809;51.892;8.384;2023-02-28T12:09:32;2.65;;;2.00;;
17382;SDS011;8809;51.892;8.384;2023-02-28T12:12:17;2.58;;;1.85;;
17382;SDS011;8809;51.892;8.384;2023-02-28T12:15:02;1.98;;;1.80;;
17382;SDS011;8809;51.892;8.384;2023-02-28T12:17:47;2.20;;;1.73;;
17382;SDS011;8809;51.892;8.384;2023-02-28T12:20:25;2.97;;;2.00;;
17382;SDS011;8809;51.892;8.384;2023-02-28T12:23:05;2.30;;;1.83;;
17382;SDS011;8809;51.892;8.384;2023-02-28T12:25:51;2.40;;;2.20;;
17382;SDS011;8809;51.892;8.384;2023-02-28T12:28:30;2.95;;;2.13;;
17382;SDS011;8809;51.892;8.384;2023-02-28T12:31:01;2.35;;;1.83;;
17382;SDS011;8809;51.892;8.384;2023-02-28T12:33:36;3.45;;;2.40;;
17382;SDS011;8809;51.892;8.384;2023-02-28T12:36:13;2.47;;;1.92;;
17382;SDS011;8809;51.892;8.384;2023-02-28T12:38:45;3.53;;;1.90;;
17382;SDS011;8809;51.892;8.384;2023-02-28T12:41:17;1.85;;;1.65;;
17382;SDS011;8809;51.892;8.384;2023-02-28T12:43:50;2.45;;;2.00;;
17382;SDS011;8809;51.892;8.384;2023-02-28T12:46:22;2.60;;;1.95;;
17382;SDS011;8809;51.892;8.384;2023-02-28T12:48:55;1.92;;;1.70;;
17382;SDS011;8809;51.892;8.384;2023-02-28T12:51:24;3.17;;;1.90;;
17382;SDS011;8809;51.892;8.384;2023-02-28T12:53:54;2.45;;;2.10;;
17382;SDS011;8809;51.892;8.384;2023-02-28T12:56:33;3.42;;;2.20;;
17382;SDS011;8809;51.892;8.384;2023-02-28T12:59:08;3.28;;;2.05;;
17382;SDS011;8809;51.892;8.384;2023-02-28T13:01:47;2.53;;;2.00;;
17382;SDS011;8809;51.892;8.384;2023-02-28T13:04:55;2.25;;;1.60;;
17382;SDS011;8809;51.892;8.384;2023-02-28T13:07:42;3.22;;;2.08;;
17382;SDS011;8809;51.892;8.384;2023-02-28T13:10:39;3.67;;;2.13;;
17382;SDS011;8809;51.892;8.384;2023-02-28T13:13:14;2.88;;;2.05;;
17382;SDS011;8809;51.892;8.384;2023-02-28T13:15:57;3.03;;;1.90;;
17382;SDS011;8809;51.892;8.384;2023-02-28T13:18:30;3.13;;;2.20;;
17382;SDS011;8809;51.892;8.384;2023-02-28T13:21:01;1.92;;;1.60;;
17382;SDS011;8809;51.892;8.384;2023-02-28T13:23:40;2.75;;;2.05;;
17382;SDS011;8809;51.892;8.384;2023-02-28T13:29:42;4.22;;;2.00;;
17382;SDS011;8809;51.892;8.384;2023-02-28T13:32:25;2.42;;;1.67;;
17382;SDS011;8809;51.892;8.384;2023-02-28T13:35:14;3.03;;;1.75;;
17382;SDS011;8809;51.892;8.384;2023-02-28T13:38:12;3.38;;;1.70;;
17382;SDS011;8809;51.892;8.384;2023-02-28T13:40:43;3.08;;;1.73;;
17382;SDS011;8809;51.892;8.384;2023-02-28T13:43:10;2.30;;;1.80;;
17382;SDS011;8809;51.892;8.384;2023-02-28T13:45:39;2.90;;;1.77;;
17382;SDS011;8809;51.892;8.384;2023-02-28T13:48:37;2.00;;;1.77;;
17382;SDS011;8809;51.892;8.384;2023-02-28T13:54:07;2.03;;;1.65;;
17382;SDS011;8809;51.892;8.384;2023-02-28T13:56:59;2.75;;;1.77;;
17382;SDS011;8809;51.892;8.384;2023-02-28T13:59:37;2.78;;;2.10;;
17382;SDS011;8809;51.892;8.384;2023-02-28T14:05:13;2.15;;;1.90;;
17382;SDS011;8809;51.892;8.384;2023-02-28T14:07:43;2.47;;;2.10;;
17382;SDS011;8809;51.892;8.384;2023-02-28T14:10:21;5.40;;;2.30;;
17382;SDS011;8809;51.892;8.384;2023-02-28T14:12:54;2.60;;;1.80;;
17382;SDS011;8809;51.892;8.384;2023-02-28T14:18:21;1.85;;;1.58;;
17382;SDS011;8809;51.892;8.384;2023-02-28T14:20:52;2.25;;;1.60;;
17382;SDS011;8809;51.892;8.384;2023-02-28T14:23:34;2.20;;;1.70;;
17382;SDS011;8809;51.892;8.384;2023-02-28T14:26:12;2.80;;;2.00;;
17382;SDS011;8809;51.892;8.384;2023-02-28T14:29:02;2.88;;;2.00;;
17382;SDS011;8809;51.892;8.384;2023-02-28T14:31:48;3.70;;;2.17;;
17382;SDS011;8809;51.892;8.384;2023-02-28T14:34:30;2.42;;;2.22;;
17382;SDS011;8809;51.892;8.384;2023-02-28T14:37:04;2.70;;;2.10;;
17382;SDS011;8809;51.892;8.384;2023-02-28T14:39:33;3.03;;;2.10;;
17382;SDS011;8809;51.892;8.384;2023-02-28T14:42:02;3.22;;;2.28;;
17382;SDS011;8809;51.892;8.384;2023-02-28T14:44:30;2.20;;;2.00;;
17382;SDS011;8809;51.892;8.384;2023-02-28T14:46:59;3.58;;;2.22;;
17382;SDS011;8809;51.892;8.384;2023-02-28T14:49:34;2.40;;;1.80;;
17382;SDS011;8809;51.892;8.384;2023-02-28T14:52:06;2.50;;;1.80;;
17382;SDS011;8809;51.892;8.384;2023-02-28T14:54:39;2.40;;;2.10;;
17382;SDS011;8809;51.892;8.384;2023-02-28T14:57:18;3.10;;;2.20;;
17382;SDS011;8809;51.892;8.384;2023-02-28T14:59:56;2.80;;;2.47;;
17382;SDS011;8809;51.892;8.384;2023-02-28T15:02:25;2.72;;;2.13;;
17382;SDS011;8809;51.892;8.384;2023-02-28T15:04:58;2.15;;;1.88;;
17382;SDS011;8809;51.892;8.384;2023-02-28T15:07:36;2.60;;;2.28;;
17382;SDS011;8809;51.892;8.384;2023-02-28T15:10:08;2.33;;;2.13;;
17382;SDS011;8809;51.892;8.384;2023-02-28T15:12:45;2.75;;;2.35;;
17382;SDS011;8809;51.892;8.384;2023-02-28T15:15:17;2.28;;;2.00;;
17382;SDS011;8809;51.892;8.384;2023-02-28T15:17:49;3.65;;;2.55;;
17382;SDS011;8809;51.892;8.384;2023-02-28T15:20:20;3.83;;;2.67;;
17382;SDS011;8809;51.892;8.384;2023-02-28T15:22:50;4.50;;;2.67;;
17382;SDS011;8809;51.892;8.384;2023-02-28T15:25:22;2.65;;;2.40;;
17382;SDS011;8809;51.892;8.384;2023-02-28T15:27:50;2.75;;;2.20;;
17382;SDS011;8809;51.892;8.384;2023-02-28T15:30:21;2.58;;;2.15;;
17382;SDS011;8809;51.892;8.384;2023-02-28T15:33:03;2.60;;;2.00;;
17382;SDS011;8809;51.892;8.384;2023-02-28T15:35:35;2.55;;;1.80;;
17382;SDS011;8809;51.892;8.384;2023-02-28T15:38:02;2.42;;;2.10;;
17382;SDS011;8809;51.892;8.384;2023-02-28T15:40:40;2.63;;;2.20;;
17382;SDS011;8809;51.892;8.384;2023-02-28T15:43:13;3.53;;;2.15;;
17382;SDS011;8809;51.892;8.384;2023-02-28T15:45:44;3.20;;;2.38;;
17382;SDS011;8809;51.892;8.384;2023-02-28T15:48:17;2.92;;;2.20;;
17382;SDS011;8809;51.892;8.384;2023-02-28T15:50:48;3.20;;;2.50;;
17382;SDS011;8809;51.892;8.384;2023-02-28T15:53:19;2.60;;;2.13;;
17382;SDS011;8809;51.892;8.384;2023-02-28T15:55:57;3.33;;;2.42;;
17382;SDS011;8809;51.892;8.384;2023-02-28T15:58:27;3.42;;;2.75;;